Time;durP1;ratioP1;P1;durP2;ratioP2;P2;SDS_P1;SDS_P2;PMS_P1;PMS_P2;Temp;Humidity;BMP_temperature;BMP_pressure;BME280_temperature;BME280_humidity;BME280_pressure;Samples;Min_cycle;Max_cycle;Signal;HPM_P1;HPM_P2
2021/06/27 15:04:11;;;;;;;11.00;6.20;;;;;;;32.60;41.71;100077.16;1802096;78;28073;-59
2021/06/27 15:06:44;;;;;;;7.45;5.28;;;;;;;32.61;41.77;100081.58;1830510;77;22189;-59
2021/06/27 15:09:17;;;;;;;5.40;4.08;;;;;;;32.49;41.68;100083.77;1820058;77;22206;-60
2021/06/27 15:11:51;;;;;;;5.25;4.22;;;;;;;32.37;40.92;100083.26;1822247;77;22167;-59
2021/06/27 15:14:25;;;;;;;6.65;4.42;;;;;;;32.24;41.41;100079.64;1828427;77;22139;-59
2021/06/27 15:16:59;;;;;;;6.08;4.10;;;;;;;32.02;41.54;100079.78;1829660;77;22195;-57
2021/06/27 15:19:34;;;;;;;6.50;4.05;;;;;;;31.92;41.93;100084.02;1834151;77;22188;-58
2021/06/27 15:36:15;;;;;;;4.75;3.65;;;;;;;31.73;42.04;100091.42;1852156;77;22207;-59
2021/06/27 15:38:48;;;;;;;4.80;3.87;;;;;;;31.71;41.89;100094.78;1830455;77;22192;-59
2021/06/27 15:41:22;;;;;;;5.40;3.70;;;;;;;31.70;41.70;100090.88;1834506;77;22180;-60
2021/06/27 15:43:55;;;;;;;5.30;3.70;;;;;;;31.62;42.09;100099.00;1807964;77;22236;-57
2021/06/27 15:46:48;;;;;;;5.10;3.40;;;;;;;31.52;42.92;100093.17;1834480;77;22184;-57
2021/06/27 15:49:21;;;;;;;6.72;3.80;;;;;;;31.44;42.59;100094.48;1819580;77;22211;-57
2021/06/27 15:51:55;;;;;;;4.67;3.10;;;;;;;31.33;42.41;100096.98;1831152;77;22198;-59
2021/06/27 15:54:28;;;;;;;5.40;3.77;;;;;;;31.33;42.44;100102.95;1821884;77;22238;-59
2021/06/27 15:57:03;;;;;;;5.65;3.33;;;;;;;31.17;41.33;100100.96;1852248;77;22207;-59
2021/06/27 15:59:36;;;;;;;3.83;3.05;;;;;;;31.00;41.85;100105.75;1838026;77;22229;-59
2021/06/27 16:02:29;;;;;;;8.93;3.72;;;;;;;30.84;42.33;100107.84;1809841;77;22178;-59
2021/06/27 16:05:07;;;;;;;6.40;3.17;;;;;;;30.72;42.82;100111.81;1808060;77;22842;-59
2021/06/27 16:07:39;;;;;;;5.75;3.10;;;;;;;30.70;43.00;100113.34;1834088;77;22184;-59
2021/06/27 16:10:12;;;;;;;8.70;3.27;;;;;;;30.66;43.41;100109.75;1828765;77;22217;-57
2021/06/27 16:12:46;;;;;;;5.75;3.22;;;;;;;30.75;43.93;100112.02;1852439;77;22202;-57
2021/06/27 16:15:19;;;;;;;5.22;3.35;;;;;;;30.75;43.86;100103.36;1828169;77;22628;-57
2021/06/27 16:17:52;;;;;;;4.42;3.12;;;;;;;30.69;43.88;100109.41;1833673;77;22203;-57
2021/06/27 16:20:45;;;;;;;5.83;3.35;;;;;;;30.56;43.98;100108.42;1797619;77;22278;-58
2021/06/27 16:23:18;;;;;;;6.30;3.25;;;;;;;30.51;43.95;100108.91;1831518;77;22198;-57
2021/06/27 16:25:52;;;;;;;5.42;3.20;;;;;;;30.38;44.43;100109.30;1820593;77;22198;-57
2021/06/27 16:28:25;;;;;;;4.15;3.45;;;;;;;30.31;44.30;100108.21;1823660;77;22199;-57
2021/06/27 16:30:58;;;;;;;5.17;3.65;;;;;;;30.21;44.80;100106.94;1906542;74;22108;-56
2021/06/27 16:33:33;;;;;;;5.05;3.45;;;;;;;30.14;45.13;100107.68;1838140;77;22193;-56
2021/06/27 16:36:06;;;;;;;5.22;3.12;;;;;;;30.06;45.62;100122.02;1834596;77;22199;-57
2021/06/27 16:38:40;;;;;;;8.08;3.90;;;;;;;30.05;45.89;100117.59;1826460;77;22657;-57
2021/06/27 16:41:13;;;;;;;5.25;3.75;;;;;;;30.06;46.00;100112.52;1809067;77;22661;-57
2021/06/27 16:44:05;;;;;;;6.60;3.70;;;;;;;30.00;45.95;100120.78;1842131;77;22266;-57
2021/06/27 16:46:38;;;;;;;7.25;3.40;;;;;;;29.90;46.25;100124.02;1813951;77;22191;-59
2021/06/27 16:49:12;;;;;;;8.98;3.58;;;;;;;29.84;46.60;100125.45;1808247;77;22280;-59
2021/06/27 16:51:46;;;;;;;6.45;3.40;;;;;;;29.65;47.13;100135.89;1816018;77;22214;-59
2021/06/27 16:54:38;;;;;;;8.80;3.65;;;;;;;29.66;47.31;100133.05;1835070;77;22248;-59
2021/06/27 16:57:13;;;;;;;5.85;3.20;;;;;;;29.60;47.62;100133.64;1832197;77;22645;-57
2021/06/27 16:59:46;;;;;;;11.08;3.67;;;;;;;29.52;47.93;100140.30;1799944;77;22281;-57
2021/06/27 17:02:39;;;;;;;8.93;3.80;;;;;;;29.28;48.89;100138.93;1823207;77;22227;-57
2021/06/27 17:05:12;;;;;;;6.17;3.65;;;;;;;29.16;49.27;100139.58;1808884;77;22665;-57
2021/06/27 17:07:46;;;;;;;10.50;4.03;;;;;;;29.08;49.57;100149.80;1831941;77;22188;-57
2021/06/27 17:10:20;;;;;;;5.17;3.42;;;;;;;28.93;50.11;100148.04;1819207;77;22209;-59
2021/06/27 17:12:59;;;;;;;6.62;3.58;;;;;;;28.82;50.49;100153.59;1831744;77;23073;-59
2021/06/27 17:15:32;;;;;;;4.87;3.60;;;;;;;28.71;50.79;100146.94;1823626;77;22257;-57
2021/06/27 17:18:04;;;;;;;8.18;4.40;;;;;;;28.59;51.51;100149.81;1826904;77;23073;-56
2021/06/27 17:20:57;;;;;;;7.75;3.75;;;;;;;28.50;51.85;100150.65;1817158;77;22233;-59
2021/06/27 17:23:30;;;;;;;6.60;3.92;;;;;;;28.41;52.10;100156.90;1832290;77;22180;-59
2021/06/27 17:26:04;;;;;;;34.20;6.53;;;;;;;28.32;52.52;100159.45;1818366;77;22213;-57
2021/06/27 17:28:57;;;;;;;7.47;3.70;;;;;;;28.25;52.90;100162.86;1813398;77;22233;-59
2021/06/27 17:31:31;;;;;;;6.17;3.50;;;;;;;28.16;53.20;100157.28;1850567;77;22211;-56
2021/06/27 17:34:04;;;;;;;5.40;3.50;;;;;;;28.10;53.45;100169.13;1824885;77;22242;-56
2021/06/27 17:36:38;;;;;;;6.22;3.90;;;;;;;28.01;53.58;100173.02;1827350;77;22163;-56
2021/06/27 17:39:11;;;;;;;6.67;3.80;;;;;;;27.93;53.95;100176.90;1823289;77;22258;-56
2021/06/27 17:41:44;;;;;;;5.50;3.95;;;;;;;27.86;54.27;100171.19;1850370;77;22224;-58
2021/06/27 17:44:17;;;;;;;3.70;3.25;;;;;;;27.78;54.41;100178.28;1839066;77;22234;-56
2021/06/27 17:46:50;;;;;;;6.08;3.72;;;;;;;27.70;54.72;100185.70;1846310;77;22505;-59
2021/06/27 17:49:24;;;;;;;5.65;4.42;;;;;;;27.54;55.07;100183.48;1820367;77;22254;-59
2021/06/27 17:51:57;;;;;;;6.95;4.10;;;;;;;27.44;55.06;100192.36;1850479;77;22254;-56
2021/06/27 17:54:31;;;;;;;7.45;4.80;;;;;;;27.27;55.40;100191.62;1803814;77;22272;-59
2021/06/27 17:57:23;;;;;;;5.78;3.87;;;;;;;27.12;55.85;100195.16;1836867;77;23027;-57
2021/06/27 17:59:57;;;;;;;5.80;3.95;;;;;;;26.99;56.28;100193.48;1813403;77;22262;-56
2021/06/27 18:02:30;;;;;;;5.35;4.28;;;;;;;26.81;56.82;100200.39;1830833;77;22215;-59
2021/06/27 18:05:05;;;;;;;10.23;4.30;;;;;;;26.69;57.23;100207.69;1812006;77;22685;-57
2021/06/27 18:07:57;;;;;;;6.05;4.10;;;;;;;26.60;57.49;100203.92;1819046;77;22230;-56
2021/06/27 18:10:30;;;;;;;6.30;4.20;;;;;;;26.53;57.83;100204.05;1805451;77;22250;-58
2021/06/27 18:13:04;;;;;;;5.15;3.95;;;;;;;26.46;58.06;100217.69;1808495;77;22206;-58
2021/06/27 18:15:37;;;;;;;6.97;4.15;;;;;;;26.40;58.31;100217.70;1800063;77;22243;-58
2021/06/27 18:18:10;;;;;;;6.05;4.50;;;;;;;26.33;58.39;100220.02;1832288;77;22229;-59
2021/06/27 18:21:04;;;;;;;4.70;4.25;;;;;;;26.24;58.69;100224.34;1809433;77;22224;-56
2021/06/27 18:23:37;;;;;;;7.95;4.58;;;;;;;26.12;58.95;100225.29;1849357;77;22753;-58
2021/06/27 18:26:10;;;;;;;5.33;3.87;;;;;;;26.01;59.30;100229.36;1826713;77;22199;-57
2021/06/27 18:29:03;;;;;;;8.10;4.80;;;;;;;25.92;59.78;100234.50;1843351;77;22245;-56
2021/06/27 18:31:36;;;;;;;5.35;4.17;;;;;;;25.87;59.98;100238.05;1819824;77;22193;-56
2021/06/27 18:34:10;;;;;;;7.17;3.70;;;;;;;25.87;60.14;100235.83;1836838;77;22626;-56
2021/06/27 18:36:43;;;;;;;5.47;4.17;;;;;;;25.79;60.30;100237.32;1852814;77;22210;-57
2021/06/27 18:39:16;;;;;;;6.08;4.53;;;;;;;25.75;60.34;100245.27;1823779;77;22234;-56
2021/06/27 18:41:49;;;;;;;5.78;4.60;;;;;;;25.70;60.57;100242.08;1852833;77;22179;-59
2021/06/27 18:44:42;;;;;;;6.25;4.35;;;;;;;25.56;61.09;100249.90;1835241;77;22600;-56
2021/06/27 18:47:15;;;;;;;5.17;4.55;;;;;;;25.49;61.20;100251.34;1804835;77;22214;-59
2021/06/27 18:50:08;;;;;;;6.95;3.92;;;;;;;25.44;61.44;100248.99;1807110;77;22197;-56
2021/06/27 18:52:42;;;;;;;6.08;4.65;;;;;;;25.40;61.67;100246.12;1828517;77;22183;-58
2021/06/27 18:55:34;;;;;;;8.10;4.80;;;;;;;25.37;61.77;100250.44;1806892;77;22194;-58
2021/06/27 18:58:08;;;;;;;5.97;4.37;;;;;;;25.32;61.83;100254.81;1825714;77;22615;-58
2021/06/27 19:00:42;;;;;;;8.50;4.55;;;;;;;25.29;61.90;100258.23;1804165;77;22224;-59
2021/06/27 19:03:34;;;;;;;4.90;4.28;;;;;;;25.26;62.05;100258.47;1845888;77;22155;-58
2021/06/27 19:06:07;;;;;;;5.28;4.40;;;;;;;25.22;62.11;100256.01;1852730;77;22207;-59
2021/06/27 19:09:00;;;;;;;6.15;3.90;;;;;;;25.20;62.16;100253.05;1836371;78;22182;-59
2021/06/27 19:11:39;;;;;;;7.37;4.55;;;;;;;25.16;62.31;100261.02;1852759;77;22143;-59
2021/06/27 19:14:14;;;;;;;9.18;4.72;;;;;;;25.12;62.37;100260.87;1825438;77;22238;-58
2021/06/27 19:17:06;;;;;;;6.15;4.62;;;;;;;25.06;62.38;100265.74;1828180;77;22167;-59
2021/06/27 19:19:39;;;;;;;8.20;4.45;;;;;;;24.99;62.54;100259.56;1818318;77;22661;-58
2021/06/27 19:22:32;;;;;;;9.30;4.50;;;;;;;24.92;62.75;100260.52;1841908;77;22170;-58
2021/06/27 19:25:09;;;;;;;7.25;4.60;;;;;;;24.83;62.96;100264.77;1808642;77;22186;-59
2021/06/27 19:27:43;;;;;;;7.05;4.75;;;;;;;24.73;63.33;100267.27;1834367;77;22587;-58
2021/06/27 19:30:17;;;;;;;5.25;4.33;;;;;;;24.77;63.20;100272.80;1810196;77;22242;-58
2021/06/27 19:33:09;;;;;;;6.92;5.00;;;;;;;24.73;63.41;100265.08;1833554;77;22603;-58
2021/06/27 19:35:42;;;;;;;6.50;4.90;;;;;;;24.72;63.51;100274.12;1804023;77;22234;-59
2021/06/27 19:38:16;;;;;;;6.28;4.45;;;;;;;24.70;63.58;100267.48;1834398;77;22587;-58
2021/06/27 19:41:02;;;;;;;5.58;4.72;;;;;;;24.68;63.72;100273.94;1829206;77;22211;-58
2021/06/27 19:43:35;;;;;;;7.33;5.05;;;;;;;24.71;63.63;100273.24;1833611;77;22176;-58
2021/06/27 19:46:27;;;;;;;5.33;4.55;;;;;;;24.72;63.68;100273.65;1833898;77;22627;-58
2021/06/27 19:49:02;;;;;;;6.78;4.50;;;;;;;24.66;63.66;100264.64;1807990;77;22207;-59
2021/06/27 19:51:35;;;;;;;7.00;5.05;;;;;;;24.61;63.76;100266.81;1834107;77;22188;-59
2021/06/27 19:54:27;;;;;;;5.30;4.80;;;;;;;24.54;63.87;100269.57;1822057;77;22210;-59
2021/06/27 19:57:00;;;;;;;7.12;4.67;;;;;;;24.46;64.08;100266.11;1833324;77;22603;-59
2021/06/27 19:59:34;;;;;;;5.80;4.65;;;;;;;24.35;64.33;100263.70;1808311;77;22234;-56
2021/06/27 20:02:07;;;;;;;5.83;4.60;;;;;;;24.23;64.67;100274.48;1819119;77;22171;-56
2021/06/27 20:04:49;;;;;;;5.55;4.62;;;;;;;24.12;65.05;100278.80;1815529;77;22249;-56
2021/06/27 20:07:23;;;;;;;5.47;4.90;;;;;;;24.03;65.29;100275.41;1846294;77;22170;-59
2021/06/27 20:09:56;;;;;;;5.78;4.72;;;;;;;23.98;65.58;100282.90;1833562;77;22205;-59
2021/06/27 20:12:30;;;;;;;7.15;5.08;;;;;;;23.98;65.68;100275.75;1834519;77;22203;-56
2021/06/27 20:15:07;;;;;;;5.10;4.60;;;;;;;23.97;65.77;100275.34;1813982;77;22175;-56
2021/06/27 20:17:40;;;;;;;6.08;4.83;;;;;;;24.03;65.75;100283.47;1828411;77;23179;-59
2021/06/27 20:20:39;;;;;;;4.67;4.28;;;;;;;23.96;65.84;100276.30;1785567;77;22240;-59
2021/06/27 20:23:12;;;;;;;6.87;5.37;;;;;;;24.03;65.71;100280.78;1834513;77;22195;-56
2021/06/27 20:26:05;;;;;;;6.35;4.70;;;;;;;24.03;65.69;100286.16;1829458;77;22167;-59
2021/06/27 20:28:38;;;;;;;5.10;4.55;;;;;;;24.00;65.66;100284.56;1838065;77;22194;-60
2021/06/27 20:31:12;;;;;;;7.37;5.25;;;;;;;23.93;65.73;100289.95;1819612;77;22651;-56
2021/06/27 20:33:45;;;;;;;7.35;4.75;;;;;;;23.83;66.00;100287.52;1831639;77;22179;-57
2021/06/27 20:36:18;;;;;;;5.75;5.15;;;;;;;23.72;66.26;100286.94;1823633;77;22173;-56
2021/06/27 20:38:52;;;;;;;7.40;5.20;;;;;;;23.72;66.28;100293.16;1830119;77;22481;-56
2021/06/27 20:41:44;;;;;;;5.67;5.08;;;;;;;23.64;66.56;100297.34;1852845;77;22602;-56
2021/06/27 20:44:17;;;;;;;7.85;4.83;;;;;;;23.60;66.56;100293.52;1838887;77;22159;-55
2021/06/27 20:47:09;;;;;;;6.45;5.45;;;;;;;23.57;66.69;100299.61;1832009;77;22602;-55
2021/06/27 20:49:43;;;;;;;9.13;4.97;;;;;;;23.45;67.04;100302.16;1836747;77;22225;-56
2021/06/27 20:52:36;;;;;;;9.08;5.10;;;;;;;23.40;67.22;100305.63;1834580;77;22171;-59
2021/06/27 20:55:11;;;;;;;6.22;4.87;;;;;;;23.28;67.67;100305.98;1823870;77;22171;-55
2021/06/27 20:58:06;;;;;;;8.98;5.72;;;;;;;23.31;67.76;100300.88;1834568;77;22167;-59
2021/06/27 21:00:40;;;;;;;11.12;5.70;;;;;;;23.35;67.71;100302.89;1823560;77;22209;-59
2021/06/27 21:03:34;;;;;;;9.00;5.40;;;;;;;23.36;67.82;100301.42;1831918;77;22542;-56
2021/06/27 21:06:07;;;;;;;7.28;6.40;;;;;;;23.31;68.01;100299.06;1834562;77;22175;-59
2021/06/27 21:09:00;;;;;;;6.97;6.15;;;;;;;23.30;68.25;100297.34;1828325;77;22625;-59
2021/06/27 21:11:33;;;;;;;6.42;5.80;;;;;;;23.40;68.10;100299.41;1834532;77;22200;-56
2021/06/27 21:14:06;;;;;;;8.68;6.55;;;;;;;23.37;68.21;100300.95;1835243;77;22230;-56
2021/06/27 21:16:39;;;;;;;8.20;6.75;;;;;;;23.39;68.12;100301.72;1820755;77;22166;-59
2021/06/27 21:19:31;;;;;;;7.03;6.28;;;;;;;23.36;68.27;100296.55;1814270;77;22182;-60
2021/06/27 21:22:05;;;;;;;11.12;6.62;;;;;;;23.36;68.33;100297.39;1845135;77;22594;-59
2021/06/27 21:24:38;;;;;;;9.18;6.62;;;;;;;23.38;68.39;100301.34;1819630;77;22206;-58
2021/06/27 21:27:11;;;;;;;8.63;6.15;;;;;;;23.44;68.21;100303.58;1834587;77;22587;-59
2021/06/27 21:30:05;;;;;;;8.98;7.30;;;;;;;23.34;68.53;100310.06;1813910;77;22205;-56
2021/06/27 21:32:39;;;;;;;7.85;6.85;;;;;;;23.33;68.61;100316.39;1833289;77;22184;-55
2021/06/27 21:35:37;;;;;;;8.38;6.97;;;;;;;23.42;68.42;100310.88;1823718;77;22731;-59
2021/06/27 21:38:11;;;;;;;10.82;7.37;;;;;;;23.40;68.46;100312.34;1834496;77;22192;-56
2021/06/27 21:40:44;;;;;;;8.00;5.90;;;;;;;23.39;68.47;100310.62;1804758;77;22202;-55
2021/06/27 21:43:17;;;;;;;16.12;7.20;;;;;;;23.43;68.49;100319.31;1824709;77;22150;-59
2021/06/27 21:45:50;;;;;;;8.88;7.12;;;;;;;23.45;68.33;100319.61;1820971;77;22165;-56
2021/06/27 21:48:43;;;;;;;8.80;7.42;;;;;;;23.45;68.36;100318.27;1850345;77;22476;-58
2021/06/27 21:51:17;;;;;;;9.60;6.90;;;;;;;23.44;68.42;100322.37;1828268;77;22147;-56
2021/06/27 21:53:50;;;;;;;9.40;6.90;;;;;;;23.35;68.59;100325.21;1805301;77;22143;-58
2021/06/27 21:56:43;;;;;;;7.97;6.97;;;;;;;23.38;68.51;100322.82;1834545;77;22635;-56
2021/06/27 21:59:16;;;;;;;9.13;7.78;;;;;;;23.30;68.71;100320.16;1819617;77;22238;-56
2021/06/27 22:01:55;;;;;;;9.70;7.10;;;;;;;23.27;68.65;100311.44;1827937;77;22578;-57
2021/06/27 22:04:28;;;;;;;8.25;6.95;;;;;;;23.28;68.56;100311.34;1839119;77;23017;-56
2021/06/27 22:07:02;;;;;;;11.10;7.37;;;;;;;23.23;68.60;100313.48;1834590;77;22594;-58
2021/06/27 22:09:35;;;;;;;9.13;7.78;;;;;;;23.24;68.58;100311.17;1820408;77;22198;-56
2021/06/27 22:12:10;;;;;;;8.15;6.95;;;;;;;23.21;68.60;100309.13;1829181;77;22151;-58
2021/06/27 22:15:03;;;;;;;9.48;6.78;;;;;;;23.12;68.84;100309.26;1806462;77;22229;-55
2021/06/27 22:17:37;;;;;;;9.80;8.05;;;;;;;23.03;69.01;100306.72;1852864;77;22159;-57
2021/06/27 22:20:29;;;;;;;9.58;7.03;;;;;;;23.00;69.22;100306.91;1818290;77;22571;-58
2021/06/27 22:23:03;;;;;;;11.85;7.35;;;;;;;23.01;69.21;100310.83;1824174;77;22174;-58
2021/06/27 22:25:55;;;;;;;10.72;7.20;;;;;;;23.04;69.11;100311.13;1819893;77;22165;-59
2021/06/27 22:28:28;;;;;;;9.75;6.72;;;;;;;23.03;69.07;100309.39;1852919;77;22179;-56
2021/06/27 22:31:02;;;;;;;10.63;6.60;;;;;;;22.99;69.13;100302.51;1829938;77;22116;-59
2021/06/27 22:33:35;;;;;;;9.35;6.58;;;;;;;23.03;68.99;100298.16;1803835;77;22170;-56
2021/06/27 22:36:08;;;;;;;8.53;6.28;;;;;;;23.02;69.07;100304.49;1852882;77;22175;-59
2021/06/27 22:39:00;;;;;;;9.18;6.60;;;;;;;23.02;69.04;100300.47;1826857;77;22598;-59
2021/06/27 22:41:34;;;;;;;10.53;5.97;;;;;;;23.07;68.90;100302.87;1818797;77;22170;-57
2021/06/27 22:44:27;;;;;;;11.30;6.35;;;;;;;23.06;68.88;100301.61;1822179;77;22175;-56
2021/06/27 22:47:02;;;;;;;8.18;6.45;;;;;;;23.04;68.88;100305.75;1834595;77;22603;-59
2021/06/27 22:49:54;;;;;;;7.95;5.78;;;;;;;23.03;68.77;100304.03;1813802;77;22197;-58
2021/06/27 22:52:27;;;;;;;7.47;5.92;;;;;;;23.03;68.82;100305.37;1846806;77;22181;-56
2021/06/27 22:55:00;;;;;;;11.88;6.60;;;;;;;22.98;68.85;100313.70;1832629;77;22676;-58
2021/06/27 22:57:33;;;;;;;13.15;5.95;;;;;;;22.97;68.81;100311.14;1834563;77;22180;-56
2021/06/27 23:00:13;;;;;;;7.60;5.75;;;;;;;22.92;68.87;100311.45;1776305;77;22610;-57
2021/06/27 23:02:47;;;;;;;10.00;5.70;;;;;;;22.93;68.85;100308.27;1834564;77;22592;-59
2021/06/27 23:05:20;;;;;;;8.43;5.65;;;;;;;22.92;68.81;100303.86;1810196;77;22166;-55
2021/06/27 23:07:53;;;;;;;8.65;5.80;;;;;;;22.92;68.83;100315.48;1829779;77;22167;-57
2021/06/27 23:10:27;;;;;;;8.25;5.67;;;;;;;22.97;68.61;100309.80;1794767;77;22206;-57
2021/06/27 23:13:01;;;;;;;7.45;5.75;;;;;;;22.95;68.70;100311.72;1827799;77;22167;-56
2021/06/27 23:15:34;;;;;;;9.25;6.17;;;;;;;22.95;68.72;100320.65;1807066;77;22621;-56
2021/06/27 23:18:27;;;;;;;11.88;6.45;;;;;;;22.97;68.58;100325.90;1825489;77;22179;-59
2021/06/27 23:21:01;;;;;;;15.15;6.10;;;;;;;22.97;68.47;100327.23;1834556;77;22176;-59
2021/06/27 23:23:35;;;;;;;9.48;5.60;;;;;;;22.97;68.40;100324.55;1834055;77;22164;-60
2021/06/27 23:26:08;;;;;;;7.53;5.25;;;;;;;22.91;68.25;100324.95;1823714;77;22205;-58
2021/06/27 23:29:00;;;;;;;10.13;5.90;;;;;;;22.85;68.31;100325.73;1821538;77;22189;-60
2021/06/27 23:31:33;;;;;;;10.05;5.37;;;;;;;22.84;68.38;100328.03;1834544;77;22184;-56
2021/06/27 23:34:06;;;;;;;8.08;5.12;;;;;;;22.79;68.42;100324.78;1821116;77;22179;-58
2021/06/27 23:36:58;;;;;;;7.37;5.47;;;;;;;22.75;68.38;100327.77;1830513;77;22123;-60
2021/06/27 23:39:32;;;;;;;9.48;5.55;;;;;;;22.70;68.50;100322.72;1838922;77;22213;-55
2021/06/27 23:42:24;;;;;;;10.90;5.17;;;;;;;22.69;68.55;100325.86;1848689;77;22174;-59
2021/06/27 23:44:57;;;;;;;12.88;5.50;;;;;;;22.70;68.52;100330.27;1815403;77;22601;-56
2021/06/27 23:47:30;;;;;;;10.53;5.72;;;;;;;22.70;68.46;100324.05;1827687;77;22183;-60
2021/06/27 23:50:06;;;;;;;12.58;6.00;;;;;;;22.68;68.42;100326.82;1813938;77;22617;-60
2021/06/27 23:52:39;;;;;;;8.68;5.25;;;;;;;22.65;68.46;100322.99;1814934;77;20118;-56
2021/06/27 23:55:13;;;;;;;10.03;5.90;;;;;;;22.65;68.46;100326.17;1811441;77;22214;-56
2021/06/27 23:58:05;;;;;;;9.70;5.30;;;;;;;22.61;68.50;100327.32;1834510;77;22164;-60
